createdAt,value
2022-10-13T00:02:06.090Z,9.58
2022-10-13T00:04:34.452Z,10.63
2022-10-13T00:07:03.210Z,9.92
2022-10-13T00:09:33.318Z,9.65
2022-10-13T00:12:01.887Z,10.14
2022-10-13T00:14:31.134Z,10.75
2022-10-13T00:17:00.830Z,10.43
2022-10-13T00:19:30.884Z,10.59
2022-10-13T00:21:58.882Z,10.76
2022-10-13T00:24:28.567Z,10.82
2022-10-13T00:26:57.604Z,10.33
2022-10-13T00:29:26.827Z,10.60
2022-10-13T00:32:00.231Z,10.79
2022-10-13T00:34:29.267Z,10.41
2022-10-13T00:36:58.196Z,10.28
2022-10-13T00:39:27.477Z,10.50
2022-10-13T00:41:57.961Z,10.16
2022-10-13T00:44:51.532Z,9.96
2022-10-13T00:47:33.164Z,9.83
2022-10-13T00:50:05.478Z,10.29
2022-10-13T00:52:32.244Z,9.80
2022-10-13T00:54:58.883Z,10.16
2022-10-13T00:57:28.506Z,10.52
2022-10-13T00:59:59.548Z,8.53
2022-10-13T01:02:29.757Z,10.59
2022-10-13T01:05:03.365Z,10.47
2022-10-13T01:07:33.954Z,10.57
2022-10-13T01:10:03.882Z,10.56
2022-10-13T01:12:44.321Z,9.86
2022-10-13T01:15:22.531Z,10.49
2022-10-13T01:17:58.811Z,10.26
2022-10-13T01:20:28.672Z,10.16
2022-10-13T01:23:11.718Z,10.15
2022-10-13T01:26:16.438Z,10.38
2022-10-13T01:28:55.031Z,10.43
2022-10-13T01:31:43.484Z,10.45
2022-10-13T01:34:37.990Z,10.32
2022-10-13T01:37:17.915Z,9.92
2022-10-13T01:39:52.296Z,10.18
2022-10-13T01:42:37.062Z,8.86
2022-10-13T01:45:09.427Z,9.46
2022-10-13T01:47:36.760Z,9.60
2022-10-13T01:50:06.065Z,10.05
2022-10-13T01:52:35.338Z,10.05
2022-10-13T01:55:09.787Z,10.09
2022-10-13T01:57:39.034Z,10.14
2022-10-13T02:00:09.072Z,10.34
2022-10-13T02:03:05.606Z,10.01
2022-10-13T02:05:48.494Z,9.40
2022-10-13T02:08:39.677Z,10.12
2022-10-13T02:11:08.356Z,10.33
2022-10-13T02:13:35.877Z,10.44
2022-10-13T02:16:02.113Z,10.44
2022-10-13T02:18:31.712Z,8.87
2022-10-13T02:20:58.745Z,10.56
2022-10-13T02:23:24.958Z,10.47
2022-10-13T02:25:51.024Z,10.44
2022-10-13T02:28:17.594Z,10.50
2022-10-13T02:30:44.620Z,10.36
2022-10-13T02:33:11.651Z,10.35
2022-10-13T02:35:38.403Z,10.27
2022-10-13T02:38:04.447Z,10.22
2022-10-13T02:40:30.632Z,10.26
2022-10-13T02:42:56.926Z,10.30
2022-10-13T02:45:22.967Z,10.22
2022-10-13T02:47:49.188Z,9.29
2022-10-13T02:50:15.299Z,9.41
2022-10-13T02:52:41.336Z,10.15
2022-10-13T02:55:08.063Z,10.13
2022-10-13T02:57:34.422Z,7.91
2022-10-13T03:00:00.457Z,10.02
2022-10-13T03:02:27.366Z,9.68
2022-10-13T03:04:53.498Z,10.15
2022-10-13T03:07:19.576Z,8.74
2022-10-13T03:09:45.666Z,9.46
2022-10-13T03:12:11.736Z,9.94
2022-10-13T03:14:37.744Z,9.63
2022-10-13T03:17:04.266Z,9.52
2022-10-13T03:19:30.451Z,9.44
2022-10-13T03:21:56.494Z,9.80
2022-10-13T03:24:22.559Z,9.88
2022-10-13T03:26:48.664Z,9.87
2022-10-13T03:29:16.366Z,9.83
2022-10-13T03:31:42.509Z,9.75
2022-10-13T03:34:11.311Z,9.40
2022-10-13T03:36:37.485Z,9.83
2022-10-13T03:39:03.533Z,9.84
2022-10-13T03:41:29.614Z,9.83
2022-10-13T03:43:55.733Z,9.65
2022-10-13T03:46:24.190Z,9.23
2022-10-13T03:48:50.206Z,9.52
2022-10-13T03:51:19.203Z,9.64
2022-10-13T03:53:46.281Z,7.80
2022-10-13T03:56:15.197Z,9.22
2022-10-13T03:58:42.124Z,9.72
2022-10-13T04:01:08.274Z,9.86
2022-10-13T04:03:34.412Z,9.83
2022-10-13T04:06:02.637Z,9.79
2022-10-13T04:08:29.412Z,9.88
2022-10-13T04:11:00.131Z,9.71
2022-10-13T04:13:26.151Z,9.82
2022-10-13T04:15:52.258Z,9.91
2022-10-13T04:18:18.439Z,9.82
2022-10-13T04:20:44.541Z,9.75
2022-10-13T04:23:10.611Z,9.87
2022-10-13T04:25:38.069Z,9.73
2022-10-13T04:28:05.602Z,9.94
2022-10-13T04:30:35.019Z,9.71
2022-10-13T04:33:01.142Z,8.57
2022-10-13T04:35:27.145Z,10.24
2022-10-13T04:37:53.551Z,10.31
2022-10-13T04:40:19.606Z,10.00
2022-10-13T04:42:45.596Z,10.37
2022-10-13T04:45:11.623Z,10.27
2022-10-13T04:47:38.934Z,8.94
2022-10-13T04:50:05.376Z,10.23
2022-10-13T04:52:31.800Z,10.09
2022-10-13T04:54:57.831Z,10.26
2022-10-13T04:57:23.919Z,10.28
2022-10-13T04:59:50.343Z,10.31
2022-10-13T05:02:16.482Z,9.78
2022-10-13T05:04:42.723Z,9.79
2022-10-13T05:07:24.062Z,10.04
2022-10-13T05:09:50.405Z,9.59
2022-10-13T05:12:16.464Z,9.94
2022-10-13T05:14:42.474Z,9.84
2022-10-13T05:17:08.543Z,10.07
2022-10-13T05:19:34.572Z,10.02
2022-10-13T05:22:00.631Z,9.88
2022-10-13T05:24:35.785Z,8.39
2022-10-13T05:27:06.500Z,9.79
2022-10-13T05:29:32.561Z,9.71
2022-10-13T05:31:58.573Z,10.13
2022-10-13T05:34:24.618Z,10.01
2022-10-13T05:36:50.656Z,9.63
2022-10-13T05:39:16.850Z,9.58
2022-10-13T05:41:42.878Z,9.99
2022-10-13T05:44:09.303Z,8.83
2022-10-13T05:46:35.741Z,9.19
2022-10-13T05:49:01.921Z,9.85
2022-10-13T05:51:33.486Z,9.58
2022-10-13T05:54:49.105Z,9.72
2022-10-13T05:57:20.758Z,9.62
2022-10-13T06:00:00.103Z,9.82
2022-10-13T06:02:30.717Z,9.54
2022-10-13T06:04:57.180Z,9.59
2022-10-13T06:07:23.480Z,9.74
2022-10-13T06:09:49.570Z,9.83
2022-10-13T06:12:15.603Z,10.08
2022-10-13T06:14:41.754Z,10.20
2022-10-13T06:17:07.980Z,9.88
2022-10-13T06:19:34.061Z,9.66
2022-10-13T06:22:03.645Z,9.73
2022-10-13T06:24:30.177Z,9.27
2022-10-13T06:26:56.268Z,9.80
2022-10-13T06:29:22.388Z,9.65
2022-10-13T06:31:48.448Z,9.67
2022-10-13T06:34:14.577Z,9.78
2022-10-13T06:36:41.454Z,9.75
2022-10-13T06:39:08.307Z,9.74
2022-10-13T06:41:34.374Z,9.90
2022-10-13T06:44:13.977Z,9.63
2022-10-13T06:46:40.049Z,9.48
2022-10-13T06:49:06.227Z,9.52
2022-10-13T06:51:32.304Z,9.72
2022-10-13T06:53:58.351Z,8.94
2022-10-13T06:56:24.440Z,9.94
2022-10-13T06:58:50.468Z,4.26
2022-10-13T07:01:16.737Z,9.79
2022-10-13T07:03:42.807Z,9.84
2022-10-13T07:06:09.842Z,9.89
2022-10-13T07:08:35.942Z,10.04
2022-10-13T07:11:14.496Z,9.91
2022-10-13T07:13:45.330Z,9.64
2022-10-13T07:16:13.689Z,10.19
2022-10-13T07:18:39.759Z,10.32
2022-10-13T07:21:06.112Z,10.05
2022-10-13T07:23:32.527Z,9.95
2022-10-13T07:25:58.790Z,10.39
2022-10-13T07:28:25.698Z,10.32
2022-10-13T07:30:52.195Z,10.19
2022-10-13T07:33:19.591Z,10.14
2022-10-13T07:35:45.917Z,9.93
2022-10-13T07:38:12.231Z,10.41
2022-10-13T07:40:38.362Z,10.61
2022-10-13T07:43:04.505Z,10.43
2022-10-13T07:45:30.780Z,10.37
2022-10-13T07:47:56.848Z,10.43
2022-10-13T07:50:22.892Z,10.22
2022-10-13T07:52:48.989Z,10.32
2022-10-13T07:55:15.104Z,10.35
2022-10-13T07:57:41.138Z,10.47
2022-10-13T08:00:08.993Z,10.49
2022-10-13T08:02:35.063Z,10.67
2022-10-13T08:05:02.745Z,10.54
2022-10-13T08:07:28.869Z,10.75
2022-10-13T08:09:55.342Z,10.16
2022-10-13T08:12:21.824Z,10.54
2022-10-13T08:14:50.433Z,10.85
2022-10-13T08:17:16.749Z,10.92
2022-10-13T08:19:42.950Z,11.00
2022-10-13T08:22:10.151Z,10.95
2022-10-13T08:24:36.542Z,10.94
2022-10-13T08:27:02.711Z,10.67
2022-10-13T08:29:28.789Z,11.07
2022-10-13T08:31:55.400Z,10.90
2022-10-13T08:34:23.118Z,11.14
2022-10-13T08:36:52.347Z,11.20
2022-10-13T08:39:18.450Z,11.11
2022-10-13T08:41:44.506Z,11.50
2022-10-13T08:47:44.720Z,11.16
2022-10-13T08:50:17.600Z,11.36
2022-10-13T08:52:49.876Z,11.68
2022-10-13T08:55:22.108Z,10.39
2022-10-13T08:57:48.150Z,11.76
2022-10-13T09:00:14.363Z,11.80
2022-10-13T09:02:42.683Z,11.87
2022-10-13T09:05:13.539Z,10.53
2022-10-13T09:07:40.137Z,11.29
2022-10-13T09:10:07.607Z,11.35
2022-10-13T09:12:33.643Z,11.04
2022-10-13T09:15:04.512Z,11.19
2022-10-13T09:17:31.596Z,11.52
2022-10-13T09:20:29.731Z,11.62
2022-10-13T09:23:02.257Z,11.83
2022-10-13T09:25:28.774Z,11.56
2022-10-13T09:27:57.483Z,11.62
2022-10-13T09:30:35.673Z,11.91
2022-10-13T09:33:14.990Z,11.80
2022-10-13T09:35:49.591Z,11.92
2022-10-13T09:38:15.766Z,12.08
2022-10-13T09:43:29.297Z,11.79
2022-10-13T09:45:56.613Z,11.78
2022-10-13T09:48:26.236Z,11.97
2022-10-13T09:50:54.537Z,12.19
2022-10-13T09:53:40.123Z,12.20
2022-10-13T09:56:23.407Z,12.29
2022-10-13T09:59:34.627Z,12.85
2022-10-13T10:02:13.379Z,12.59
2022-10-13T10:04:42.790Z,12.16
2022-10-13T10:07:15.797Z,12.36
2022-10-13T10:09:47.611Z,12.37
2022-10-13T10:12:17.638Z,12.34
2022-10-13T10:14:43.752Z,12.32
2022-10-13T10:17:52.163Z,12.30
2022-10-13T10:20:36.917Z,12.31
2022-10-13T10:23:08.694Z,12.18
2022-10-13T10:25:39.485Z,12.09
2022-10-13T10:28:24.268Z,12.23
2022-10-13T10:31:11.743Z,12.42
2022-10-13T10:33:37.765Z,12.40
2022-10-13T10:36:18.310Z,12.40
2022-10-13T10:38:49.952Z,12.26
2022-10-13T10:41:31.163Z,11.01
2022-10-13T10:44:02.483Z,12.58
2022-10-13T10:46:32.869Z,12.75
2022-10-13T10:49:02.313Z,12.08
2022-10-13T10:51:31.785Z,12.69
2022-10-13T10:54:30.232Z,12.70
2022-10-13T10:57:01.007Z,12.97
2022-10-13T10:59:52.234Z,13.11
2022-10-13T11:02:34.630Z,13.39
2022-10-13T11:05:05.350Z,13.02
2022-10-13T11:07:32.590Z,13.60
2022-10-13T11:09:58.644Z,13.87
2022-10-13T11:12:27.015Z,13.65
2022-10-13T11:14:52.985Z,14.45
2022-10-13T11:17:38.728Z,13.26
2022-10-13T11:20:17.290Z,15.11
2022-10-13T11:23:03.222Z,14.39
2022-10-13T11:25:43.764Z,14.31
2022-10-13T11:28:21.796Z,14.96
2022-10-13T11:30:54.676Z,14.60
2022-10-13T11:33:33.847Z,14.77
2022-10-13T11:36:38.593Z,14.97
2022-10-13T11:39:27.162Z,15.20
2022-10-13T11:42:11.506Z,15.09
2022-10-13T11:45:01.287Z,15.39
2022-10-13T11:47:33.191Z,15.42
2022-10-13T11:50:11.383Z,15.70
2022-10-13T11:52:52.688Z,16.33
2022-10-13T11:55:29.551Z,16.52
2022-10-13T11:58:11.593Z,16.33
2022-10-13T12:00:37.614Z,16.16
2022-10-13T12:03:03.725Z,16.82
2022-10-13T12:05:31.169Z,16.78
2022-10-13T12:08:00.657Z,16.09
2022-10-13T12:10:34.898Z,15.78
2022-10-13T12:13:02.317Z,15.40
2022-10-13T12:15:30.911Z,15.11
2022-10-13T12:17:57.009Z,15.29
2022-10-13T12:20:33.512Z,15.32
2022-10-13T12:22:59.536Z,15.55
2022-10-13T12:25:28.095Z,15.59
2022-10-13T12:27:55.762Z,15.86
2022-10-13T12:30:26.530Z,16.39
2022-10-13T12:32:54.705Z,16.31
2022-10-13T12:35:23.352Z,16.11
2022-10-13T12:37:50.119Z,16.33
2022-10-13T12:40:17.534Z,16.18
2022-10-13T12:42:43.982Z,15.86
2022-10-13T12:45:14.548Z,15.95
2022-10-13T12:47:43.623Z,16.23
2022-10-13T12:50:25.068Z,15.81
2022-10-13T12:52:54.865Z,15.75
2022-10-13T12:55:22.429Z,15.57
2022-10-13T12:57:49.667Z,11.74
2022-10-13T13:00:19.234Z,15.21
2022-10-13T13:02:52.702Z,14.95
2022-10-13T13:05:52.392Z,15.07
2022-10-13T13:08:26.197Z,15.17
2022-10-13T13:11:03.277Z,15.07
2022-10-13T13:13:29.627Z,14.91
2022-10-13T13:16:24.956Z,14.93
2022-10-13T13:18:51.316Z,15.15
2022-10-13T13:21:18.861Z,11.49
2022-10-13T13:23:51.090Z,15.21
2022-10-13T13:26:23.477Z,14.94
2022-10-13T13:28:53.939Z,14.76
2022-10-13T13:31:22.347Z,14.10
2022-10-13T13:33:48.738Z,10.98
2022-10-13T13:36:17.543Z,15.08
2022-10-13T13:38:43.787Z,15.02
2022-10-13T13:41:10.960Z,14.90
2022-10-13T13:43:37.713Z,15.15
2022-10-13T13:46:04.881Z,14.88
2022-10-13T13:48:31.273Z,15.11
2022-10-13T13:50:57.301Z,15.00
2022-10-13T13:53:23.350Z,14.66
2022-10-13T13:55:49.592Z,14.89
2022-10-13T13:58:15.635Z,15.08
2022-10-13T14:00:41.654Z,15.11
2022-10-13T14:03:07.673Z,15.08
2022-10-13T14:05:33.709Z,15.10
2022-10-13T14:08:00.416Z,15.21
2022-10-13T14:10:26.547Z,15.03
2022-10-13T14:12:52.611Z,14.90
2022-10-13T14:15:18.652Z,14.44
2022-10-13T14:17:44.720Z,15.27
2022-10-13T14:20:11.283Z,15.30
2022-10-13T14:22:38.329Z,15.21
2022-10-13T14:25:05.619Z,15.22
2022-10-13T14:27:33.199Z,15.05
2022-10-13T14:30:00.518Z,15.09
2022-10-13T14:32:26.753Z,14.48
2022-10-13T14:34:52.775Z,15.10
2022-10-13T14:37:22.877Z,14.97
2022-10-13T14:39:49.300Z,14.84
2022-10-13T14:42:15.306Z,14.80
2022-10-13T14:44:41.314Z,14.87
2022-10-13T14:47:07.705Z,14.86
2022-10-13T14:49:33.710Z,14.88
2022-10-13T14:51:59.714Z,14.93
2022-10-13T14:54:25.834Z,14.92
2022-10-13T14:56:51.919Z,14.46
2022-10-13T14:59:17.951Z,14.86
2022-10-13T15:01:44.489Z,14.40
2022-10-13T15:04:10.542Z,14.77
2022-10-13T15:06:39.764Z,14.85
2022-10-13T15:11:38.584Z,14.79
2022-10-13T15:14:04.637Z,14.79
2022-10-13T15:16:36.173Z,14.76
2022-10-13T15:19:02.851Z,14.69
2022-10-13T15:21:29.045Z,14.74
2022-10-13T15:23:55.489Z,14.64
2022-10-13T15:26:21.600Z,14.66
2022-10-13T15:28:50.451Z,14.73
2022-10-13T15:31:17.766Z,14.63
2022-10-13T15:33:48.934Z,14.65
2022-10-13T15:36:15.086Z,14.63
2022-10-13T15:38:41.101Z,14.78
2022-10-13T15:41:07.556Z,14.65
2022-10-13T15:43:34.185Z,14.56
2022-10-13T15:46:02.966Z,14.67
2022-10-13T15:48:29.185Z,14.55
2022-10-13T15:50:55.211Z,14.49
2022-10-13T15:53:21.371Z,14.40
2022-10-13T15:55:47.971Z,14.60
2022-10-13T15:58:14.418Z,14.45
2022-10-13T16:00:41.255Z,14.57
2022-10-13T16:03:12.732Z,14.49
2022-10-13T16:05:43.008Z,14.47
2022-10-13T16:08:09.138Z,14.50
2022-10-13T16:10:38.974Z,14.51
2022-10-13T16:13:04.998Z,14.40
2022-10-13T16:15:31.064Z,14.37
2022-10-13T16:17:57.065Z,14.46
2022-10-13T16:20:23.072Z,14.40
2022-10-13T16:22:49.101Z,14.38
2022-10-13T16:25:15.269Z,14.52
2022-10-13T16:27:44.224Z,14.47
2022-10-13T16:30:11.306Z,14.39
2022-10-13T16:32:38.533Z,14.43
2022-10-13T16:35:05.804Z,14.44
2022-10-13T16:37:31.810Z,14.34
2022-10-13T16:39:57.813Z,14.41
2022-10-13T16:42:23.937Z,14.40
2022-10-13T16:44:49.931Z,14.22
2022-10-13T16:47:18.411Z,14.21
2022-10-13T16:49:45.064Z,14.28
2022-10-13T16:52:11.587Z,14.22
2022-10-13T16:54:37.598Z,14.13
2022-10-13T16:57:03.750Z,14.29
2022-10-13T16:59:29.862Z,14.22
2022-10-13T17:01:57.125Z,14.24
2022-10-13T17:04:23.529Z,14.28
2022-10-13T17:06:49.512Z,14.32
2022-10-13T17:09:15.610Z,14.13
2022-10-13T17:11:42.754Z,14.16
2022-10-13T17:14:09.573Z,14.29
2022-10-13T17:16:35.720Z,14.40
2022-10-13T17:19:02.117Z,14.40
2022-10-13T17:21:28.175Z,14.30
2022-10-13T17:23:55.261Z,14.32
2022-10-13T17:26:21.369Z,14.30
2022-10-13T17:28:47.573Z,14.30
2022-10-13T17:31:19.509Z,14.32
2022-10-13T17:33:46.214Z,14.08
2022-10-13T17:36:15.107Z,14.03
2022-10-13T17:38:41.959Z,13.99
2022-10-13T17:41:08.873Z,13.83
2022-10-13T17:43:36.739Z,14.12
2022-10-13T17:46:34.914Z,14.18
2022-10-13T17:48:59.360Z,14.23
2022-10-13T17:51:25.460Z,13.84
2022-10-13T17:53:52.116Z,13.93
2022-10-13T17:56:23.175Z,14.14
2022-10-13T17:58:50.263Z,14.02
2022-10-13T18:01:25.205Z,14.04
2022-10-13T18:03:56.735Z,13.95
2022-10-13T18:06:23.167Z,13.95
2022-10-13T18:08:50.066Z,13.89
2022-10-13T18:11:17.668Z,13.70
2022-10-13T18:13:44.434Z,14.07
2022-10-13T18:16:18.777Z,14.04
2022-10-13T18:18:45.816Z,14.07
2022-10-13T18:21:13.847Z,13.97
2022-10-13T18:23:40.473Z,13.56
2022-10-13T18:26:11.832Z,14.05
2022-10-13T18:28:44.769Z,14.07
2022-10-13T18:31:11.283Z,14.15
2022-10-13T18:33:37.600Z,14.02
2022-10-13T18:36:27.547Z,14.00
2022-10-13T18:38:55.494Z,13.98
2022-10-13T18:41:23.352Z,13.99
2022-10-13T18:43:49.779Z,13.90
2022-10-13T18:46:16.043Z,14.03
2022-10-13T18:48:42.319Z,12.96
2022-10-13T18:51:10.430Z,13.90
2022-10-13T18:53:37.773Z,13.76
2022-10-13T18:56:10.321Z,13.74
2022-10-13T18:58:36.450Z,14.00
2022-10-13T19:01:06.327Z,13.97
2022-10-13T19:03:33.815Z,14.05
2022-10-13T19:06:02.136Z,14.03
2022-10-13T19:08:28.702Z,13.50
2022-10-13T19:10:54.741Z,13.96
2022-10-13T19:13:20.970Z,13.77
2022-10-13T19:15:47.013Z,13.61
2022-10-13T19:18:13.301Z,13.82
2022-10-13T19:20:39.364Z,13.69
2022-10-13T19:23:05.580Z,13.77
2022-10-13T19:25:31.863Z,13.88
2022-10-13T19:27:58.293Z,12.53
2022-10-13T19:30:27.368Z,13.24
2022-10-13T19:32:53.454Z,13.65
2022-10-13T19:35:19.576Z,13.80
2022-10-13T19:37:45.573Z,13.62
2022-10-13T19:40:11.579Z,13.78
2022-10-13T19:42:37.675Z,13.55
2022-10-13T19:45:04.960Z,13.55
2022-10-13T19:47:30.982Z,13.67
2022-10-13T19:49:57.094Z,13.68
2022-10-13T19:52:24.524Z,13.50
2022-10-13T19:54:51.299Z,13.57
2022-10-13T19:57:17.472Z,13.58
2022-10-13T19:59:47.534Z,13.55
2022-10-13T20:02:13.947Z,12.40
2022-10-13T20:04:39.992Z,13.19
2022-10-13T20:07:06.022Z,12.57
2022-10-13T20:09:32.644Z,13.50
2022-10-13T20:11:58.662Z,13.58
2022-10-13T20:14:24.666Z,13.71
2022-10-13T20:16:50.696Z,13.89
2022-10-13T20:19:18.773Z,13.86
2022-10-13T20:21:45.181Z,12.88
2022-10-13T20:24:12.301Z,13.64
2022-10-13T20:26:40.336Z,13.76
2022-10-13T20:29:06.526Z,13.76
2022-10-13T20:31:32.700Z,13.81
2022-10-13T20:33:58.687Z,12.72
2022-10-13T20:36:25.995Z,13.65
2022-10-13T20:38:52.180Z,13.60
2022-10-13T20:41:26.881Z,13.64
2022-10-13T20:43:54.483Z,12.23
2022-10-13T20:46:21.159Z,13.45
2022-10-13T20:51:33.858Z,13.34
2022-10-13T20:53:59.994Z,13.56
2022-10-13T20:56:26.443Z,13.52
2022-10-13T20:58:52.838Z,13.35
2022-10-13T21:01:20.877Z,13.56
2022-10-13T21:03:54.016Z,13.55
2022-10-13T21:06:21.446Z,13.67
2022-10-13T21:08:47.683Z,13.62
2022-10-13T21:11:15.252Z,13.50
2022-10-13T21:13:42.433Z,13.50
2022-10-13T21:16:11.715Z,12.28
2022-10-13T21:18:37.832Z,13.03
2022-10-13T21:21:09.492Z,13.05
2022-10-13T21:23:36.245Z,13.28
2022-10-13T21:26:04.174Z,13.33
2022-10-13T21:28:31.124Z,13.42
2022-10-13T21:31:05.581Z,13.35
2022-10-13T21:33:35.435Z,13.23
2022-10-13T21:36:12.417Z,13.30
2022-10-13T21:38:38.987Z,13.03
2022-10-13T21:41:06.602Z,11.79
2022-10-13T21:43:33.419Z,13.25
2022-10-13T21:46:15.426Z,13.30
2022-10-13T21:48:42.672Z,13.26
2022-10-13T21:51:29.312Z,13.28
2022-10-13T21:53:57.535Z,12.98
2022-10-13T21:56:25.371Z,13.15
2022-10-13T21:58:52.537Z,11.99
2022-10-13T22:01:19.399Z,12.07
2022-10-13T22:03:48.996Z,13.28
2022-10-13T22:06:19.041Z,13.20
2022-10-13T22:08:47.764Z,13.16
2022-10-13T22:11:14.362Z,13.24
2022-10-13T22:13:40.355Z,11.75
2022-10-13T22:16:12.508Z,13.29
2022-10-13T22:18:38.582Z,13.19
2022-10-13T22:21:07.025Z,13.31
2022-10-13T22:23:33.205Z,13.16
2022-10-13T22:25:59.242Z,13.26
2022-10-13T22:28:25.439Z,13.27
2022-10-13T22:30:52.086Z,13.43
2022-10-13T22:33:18.805Z,13.29
2022-10-13T22:35:46.053Z,13.33
2022-10-13T22:38:12.979Z,13.19
2022-10-13T22:40:39.655Z,13.35
2022-10-13T22:43:05.743Z,13.20
2022-10-13T22:45:31.726Z,13.35
2022-10-13T22:47:57.733Z,13.28
2022-10-13T22:50:23.753Z,13.33
2022-10-13T22:52:50.016Z,13.48
2022-10-13T22:55:16.048Z,12.24
2022-10-13T22:57:42.084Z,13.35
2022-10-13T23:00:09.208Z,11.77
2022-10-13T23:02:35.224Z,13.51
2022-10-13T23:05:01.321Z,13.36
2022-10-13T23:07:30.580Z,13.25
2022-10-13T23:09:56.571Z,13.44
2022-10-13T23:12:22.611Z,13.25
2022-10-13T23:14:48.627Z,13.43
2022-10-13T23:17:14.631Z,13.40
2022-10-13T23:19:40.618Z,13.53
2022-10-13T23:22:06.624Z,13.40
2022-10-13T23:24:32.634Z,13.53
2022-10-13T23:27:00.395Z,13.58
2022-10-13T23:29:27.188Z,12.98
2022-10-13T23:31:53.319Z,13.45
2022-10-13T23:34:19.477Z,13.36
2022-10-13T23:36:45.498Z,13.44
2022-10-13T23:39:11.550Z,13.26
2022-10-13T23:41:37.693Z,13.31
2022-10-13T23:44:03.863Z,13.31
2022-10-13T23:46:30.102Z,13.18
2022-10-13T23:48:56.245Z,13.25
2022-10-13T23:51:24.043Z,13.33
2022-10-13T23:53:51.057Z,13.49
2022-10-13T23:56:17.202Z,13.35
2022-10-13T23:58:44.026Z,13.37
